sensor_id;sensor_type;location;lat;lon;timestamp;temperature;humidity
64549;DHT22;49838;51.798;10.954;2023-03-19T00:00:36;19.20;30.90
64549;DHT22;49838;51.798;10.954;2023-03-19T00:03:03;19.20;30.90
64549;DHT22;49838;51.798;10.954;2023-03-19T00:05:31;19.30;30.90
64549;DHT22;49838;51.798;10.954;2023-03-19T00:07:59;19.20;30.90
64549;DHT22;49838;51.798;10.954;2023-03-19T00:10:27;19.30;31.00
64549;DHT22;49838;51.798;10.954;2023-03-19T00:12:54;19.20;31.00
64549;DHT22;49838;51.798;10.954;2023-03-19T00:15:21;19.20;31.00
64549;DHT22;49838;51.798;10.954;2023-03-19T00:17:48;19.20;31.00
64549;DHT22;49838;51.798;10.954;2023-03-19T00:20:16;19.20;31.00
64549;DHT22;49838;51.798;10.954;2023-03-19T00:22:45;19.20;31.00
64549;DHT22;49838;51.798;10.954;2023-03-19T00:25:13;19.20;31.10
64549;DHT22;49838;51.798;10.954;2023-03-19T00:27:40;19.20;31.20
64549;DHT22;49838;51.798;10.954;2023-03-19T00:30:09;19.20;31.20
64549;DHT22;49838;51.798;10.954;2023-03-19T00:32:37;19.20;31.20
64549;DHT22;49838;51.798;10.954;2023-03-19T00:35:05;19.20;31.30
64549;DHT22;49838;51.798;10.954;2023-03-19T00:37:33;19.20;31.20
64549;DHT22;49838;51.798;10.954;2023-03-19T00:40:02;19.20;31.20
64549;DHT22;49838;51.798;10.954;2023-03-19T00:42:31;19.20;31.30
64549;DHT22;49838;51.798;10.954;2023-03-19T00:44:59;19.20;31.30
64549;DHT22;49838;51.798;10.954;2023-03-19T00:47:26;19.20;31.30
64549;DHT22;49838;51.798;10.954;2023-03-19T00:49:53;19.10;31.30
64549;DHT22;49838;51.798;10.954;2023-03-19T00:52:21;19.10;31.20
64549;DHT22;49838;51.798;10.954;2023-03-19T00:54:48;19.10;31.20
64549;DHT22;49838;51.798;10.954;2023-03-19T00:57:15;19.10;31.20
64549;DHT22;49838;51.798;10.954;2023-03-19T00:59:44;19.10;31.20
64549;DHT22;49838;51.798;10.954;2023-03-19T01:02:11;19.20;31.20
64549;DHT22;49838;51.798;10.954;2023-03-19T01:04:48;19.10;31.10
64549;DHT22;49838;51.798;10.954;2023-03-19T01:07:15;19.10;31.20
64549;DHT22;49838;51.798;10.954;2023-03-19T01:09:42;19.10;31.30
64549;DHT22;49838;51.798;10.954;2023-03-19T01:12:10;19.00;31.10
64549;DHT22;49838;51.798;10.954;2023-03-19T01:14:37;19.00;31.20
64549;DHT22;49838;51.798;10.954;2023-03-19T01:17:06;19.00;31.20
64549;DHT22;49838;51.798;10.954;2023-03-19T01:19:33;19.00;31.20
64549;DHT22;49838;51.798;10.954;2023-03-19T01:22:00;19.00;31.20
64549;DHT22;49838;51.798;10.954;2023-03-19T01:24:29;19.00;31.20
64549;DHT22;49838;51.798;10.954;2023-03-19T01:26:56;19.00;31.10
64549;DHT22;49838;51.798;10.954;2023-03-19T01:29:23;19.00;31.20
64549;DHT22;49838;51.798;10.954;2023-03-19T01:31:51;19.10;30.70
64549;DHT22;49838;51.798;10.954;2023-03-19T01:34:19;19.00;31.10
64549;DHT22;49838;51.798;10.954;2023-03-19T01:36:47;19.00;31.10
64549;DHT22;49838;51.798;10.954;2023-03-19T01:39:15;19.00;31.20
64549;DHT22;49838;51.798;10.954;2023-03-19T01:41:42;19.00;31.20
64549;DHT22;49838;51.798;10.954;2023-03-19T01:44:22;19.00;31.30
64549;DHT22;49838;51.798;10.954;2023-03-19T01:46:50;19.00;31.30
64549;DHT22;49838;51.798;10.954;2023-03-19T01:49:19;18.90;31.30
64549;DHT22;49838;51.798;10.954;2023-03-19T01:51:49;18.90;31.30
64549;DHT22;49838;51.798;10.954;2023-03-19T01:54:19;18.80;31.30
64549;DHT22;49838;51.798;10.954;2023-03-19T01:56:49;18.80;31.30
64549;DHT22;49838;51.798;10.954;2023-03-19T01:59:22;18.70;31.30
64549;DHT22;49838;51.798;10.954;2023-03-19T02:01:54;18.70;31.40
64549;DHT22;49838;51.798;10.954;2023-03-19T02:04:25;18.70;31.40
64549;DHT22;49838;51.798;10.954;2023-03-19T02:06:55;18.60;31.40
64549;DHT22;49838;51.798;10.954;2023-03-19T02:09:24;18.60;31.40
64549;DHT22;49838;51.798;10.954;2023-03-19T02:11:53;18.60;31.40
64549;DHT22;49838;51.798;10.954;2023-03-19T02:14:21;18.60;31.70
64549;DHT22;49838;51.798;10.954;2023-03-19T02:16:48;18.50;31.50
64549;DHT22;49838;51.798;10.954;2023-03-19T02:19:17;18.50;31.50
64549;DHT22;49838;51.798;10.954;2023-03-19T02:21:49;18.50;31.50
64549;DHT22;49838;51.798;10.954;2023-03-19T02:24:18;18.50;31.50
64549;DHT22;49838;51.798;10.954;2023-03-19T02:26:50;18.50;31.50
64549;DHT22;49838;51.798;10.954;2023-03-19T02:29:18;18.50;31.50
64549;DHT22;49838;51.798;10.954;2023-03-19T02:31:45;18.40;31.50
64549;DHT22;49838;51.798;10.954;2023-03-19T02:37:00;18.40;31.50
64549;DHT22;49838;51.798;10.954;2023-03-19T02:39:33;18.40;31.60
64549;DHT22;49838;51.798;10.954;2023-03-19T02:42:08;18.40;31.50
64549;DHT22;49838;51.798;10.954;2023-03-19T02:44:37;18.40;31.60
64549;DHT22;49838;51.798;10.954;2023-03-19T02:47:04;18.40;31.60
64549;DHT22;49838;51.798;10.954;2023-03-19T02:49:32;18.40;31.60
64549;DHT22;49838;51.798;10.954;2023-03-19T02:52:03;18.40;31.60
64549;DHT22;49838;51.798;10.954;2023-03-19T02:54:30;18.40;31.60
64549;DHT22;49838;51.798;10.954;2023-03-19T02:56:58;18.40;31.80
64549;DHT22;49838;51.798;10.954;2023-03-19T02:59:27;18.40;31.80
64549;DHT22;49838;51.798;10.954;2023-03-19T03:01:54;18.40;32.10
64549;DHT22;49838;51.798;10.954;2023-03-19T03:04:21;18.30;31.90
64549;DHT22;49838;51.798;10.954;2023-03-19T03:06:48;18.30;32.00
64549;DHT22;49838;51.798;10.954;2023-03-19T03:09:16;18.30;32.00
64549;DHT22;49838;51.798;10.954;2023-03-19T03:11:44;18.30;32.00
64549;DHT22;49838;51.798;10.954;2023-03-19T03:14:11;18.30;32.10
64549;DHT22;49838;51.798;10.954;2023-03-19T03:16:40;18.30;32.10
64549;DHT22;49838;51.798;10.954;2023-03-19T03:19:07;18.40;32.10
64549;DHT22;49838;51.798;10.954;2023-03-19T03:21:34;18.40;32.20
64549;DHT22;49838;51.798;10.954;2023-03-19T03:24:02;18.30;32.10
64549;DHT22;49838;51.798;10.954;2023-03-19T03:26:29;18.30;32.10
64549;DHT22;49838;51.798;10.954;2023-03-19T03:28:57;18.30;32.10
64549;DHT22;49838;51.798;10.954;2023-03-19T03:31:24;18.30;32.00
64549;DHT22;49838;51.798;10.954;2023-03-19T03:33:53;18.40;32.10
64549;DHT22;49838;51.798;10.954;2023-03-19T03:36:20;18.40;32.00
64549;DHT22;49838;51.798;10.954;2023-03-19T03:38:48;18.40;31.90
64549;DHT22;49838;51.798;10.954;2023-03-19T03:41:15;18.50;32.00
64549;DHT22;49838;51.798;10.954;2023-03-19T03:43:43;18.50;31.90
64549;DHT22;49838;51.798;10.954;2023-03-19T03:46:10;18.50;31.90
64549;DHT22;49838;51.798;10.954;2023-03-19T03:48:38;18.50;31.90
64549;DHT22;49838;51.798;10.954;2023-03-19T03:51:07;18.50;31.90
64549;DHT22;49838;51.798;10.954;2023-03-19T03:53:34;18.50;31.90
64549;DHT22;49838;51.798;10.954;2023-03-19T03:56:01;18.50;31.90
64549;DHT22;49838;51.798;10.954;2023-03-19T03:58:28;18.50;31.90
64549;DHT22;49838;51.798;10.954;2023-03-19T04:00:56;18.50;31.90
64549;DHT22;49838;51.798;10.954;2023-03-19T04:03:23;18.50;32.10
64549;DHT22;49838;51.798;10.954;2023-03-19T04:05:51;18.50;32.10
64549;DHT22;49838;51.798;10.954;2023-03-19T04:08:20;18.50;32.10
64549;DHT22;49838;51.798;10.954;2023-03-19T04:10:48;18.40;32.00
64549;DHT22;49838;51.798;10.954;2023-03-19T04:13:15;18.50;32.40
64549;DHT22;49838;51.798;10.954;2023-03-19T04:15:42;18.50;32.00
64549;DHT22;49838;51.798;10.954;2023-03-19T04:18:10;18.50;32.10
64549;DHT22;49838;51.798;10.954;2023-03-19T04:20:37;18.50;32.10
64549;DHT22;49838;51.798;10.954;2023-03-19T04:23:06;18.50;32.10
64549;DHT22;49838;51.798;10.954;2023-03-19T04:25:34;18.50;32.00
64549;DHT22;49838;51.798;10.954;2023-03-19T04:28:05;18.50;32.00
64549;DHT22;49838;51.798;10.954;2023-03-19T04:30:33;18.40;32.00
64549;DHT22;49838;51.798;10.954;2023-03-19T04:33:01;18.40;32.20
64549;DHT22;49838;51.798;10.954;2023-03-19T04:35:29;18.30;32.20
64549;DHT22;49838;51.798;10.954;2023-03-19T04:37:57;18.30;32.30
64549;DHT22;49838;51.798;10.954;2023-03-19T04:40:24;18.20;32.30
64549;DHT22;49838;51.798;10.954;2023-03-19T04:42:53;18.20;32.30
64549;DHT22;49838;51.798;10.954;2023-03-19T04:45:21;18.20;32.30
64549;DHT22;49838;51.798;10.954;2023-03-19T04:47:48;18.20;32.30
64549;DHT22;49838;51.798;10.954;2023-03-19T04:50:16;18.20;32.30
64549;DHT22;49838;51.798;10.954;2023-03-19T04:52:43;18.20;32.20
64549;DHT22;49838;51.798;10.954;2023-03-19T04:55:11;18.20;32.20
64549;DHT22;49838;51.798;10.954;2023-03-19T04:57:38;18.20;32.10
64549;DHT22;49838;51.798;10.954;2023-03-19T05:00:07;18.10;32.10
64549;DHT22;49838;51.798;10.954;2023-03-19T05:02:37;18.10;32.10
64549;DHT22;49838;51.798;10.954;2023-03-19T05:05:04;18.00;32.10
64549;DHT22;49838;51.798;10.954;2023-03-19T05:07:32;17.90;32.10
64549;DHT22;49838;51.798;10.954;2023-03-19T05:09:59;17.90;32.10
64549;DHT22;49838;51.798;10.954;2023-03-19T05:12:26;17.80;32.10
64549;DHT22;49838;51.798;10.954;2023-03-19T05:14:53;17.80;32.00
64549;DHT22;49838;51.798;10.954;2023-03-19T05:17:22;17.80;32.10
64549;DHT22;49838;51.798;10.954;2023-03-19T05:19:50;17.80;32.10
64549;DHT22;49838;51.798;10.954;2023-03-19T05:22:17;17.80;32.00
64549;DHT22;49838;51.798;10.954;2023-03-19T05:24:44;17.80;32.10
64549;DHT22;49838;51.798;10.954;2023-03-19T05:27:12;17.80;32.10
64549;DHT22;49838;51.798;10.954;2023-03-19T05:29:39;17.80;32.00
64549;DHT22;49838;51.798;10.954;2023-03-19T05:32:07;17.70;32.00
64549;DHT22;49838;51.798;10.954;2023-03-19T05:34:36;17.70;32.00
64549;DHT22;49838;51.798;10.954;2023-03-19T05:37:04;17.70;32.00
64549;DHT22;49838;51.798;10.954;2023-03-19T05:39:32;17.70;32.10
64549;DHT22;49838;51.798;10.954;2023-03-19T05:41:59;17.70;32.00
64549;DHT22;49838;51.798;10.954;2023-03-19T05:44:27;17.80;32.10
64549;DHT22;49838;51.798;10.954;2023-03-19T05:46:54;17.80;32.10
64549;DHT22;49838;51.798;10.954;2023-03-19T05:49:22;17.90;32.10
64549;DHT22;49838;51.798;10.954;2023-03-19T05:51:50;17.90;32.20
64549;DHT22;49838;51.798;10.954;2023-03-19T05:54:18;17.90;32.20
64549;DHT22;49838;51.798;10.954;2023-03-19T05:56:45;17.90;32.20
64549;DHT22;49838;51.798;10.954;2023-03-19T05:59:13;18.00;32.20
64549;DHT22;49838;51.798;10.954;2023-03-19T06:01:40;18.00;32.30
64549;DHT22;49838;51.798;10.954;2023-03-19T06:04:07;18.00;32.20
64549;DHT22;49838;51.798;10.954;2023-03-19T06:06:35;18.00;32.30
64549;DHT22;49838;51.798;10.954;2023-03-19T06:09:04;18.00;32.30
64549;DHT22;49838;51.798;10.954;2023-03-19T06:11:31;18.00;32.40
64549;DHT22;49838;51.798;10.954;2023-03-19T06:13:58;18.00;32.40
64549;DHT22;49838;51.798;10.954;2023-03-19T06:16:26;18.00;32.40
64549;DHT22;49838;51.798;10.954;2023-03-19T06:18:53;18.00;32.40
64549;DHT22;49838;51.798;10.954;2023-03-19T06:21:20;18.10;32.50
64549;DHT22;49838;51.798;10.954;2023-03-19T06:23:47;18.20;32.50
64549;DHT22;49838;51.798;10.954;2023-03-19T06:26:17;18.20;32.50
64549;DHT22;49838;51.798;10.954;2023-03-19T06:28:44;18.30;32.50
64549;DHT22;49838;51.798;10.954;2023-03-19T06:31:11;18.30;32.50
64549;DHT22;49838;51.798;10.954;2023-03-19T06:33:39;18.40;32.60
64549;DHT22;49838;51.798;10.954;2023-03-19T06:36:06;18.40;32.60
64549;DHT22;49838;51.798;10.954;2023-03-19T06:38:34;18.50;32.60
64549;DHT22;49838;51.798;10.954;2023-03-19T06:41:02;18.60;32.80
64549;DHT22;49838;51.798;10.954;2023-03-19T06:43:31;18.60;32.70
64549;DHT22;49838;51.798;10.954;2023-03-19T06:46:01;18.60;32.70
64549;DHT22;49838;51.798;10.954;2023-03-19T06:48:29;18.60;33.20
64549;DHT22;49838;51.798;10.954;2023-03-19T06:50:56;18.60;33.10
64549;DHT22;49838;51.798;10.954;2023-03-19T06:53:23;18.60;33.00
64549;DHT22;49838;51.798;10.954;2023-03-19T06:55:51;18.80;33.20
64549;DHT22;49838;51.798;10.954;2023-03-19T06:58:18;18.90;33.20
64549;DHT22;49838;51.798;10.954;2023-03-19T07:00:47;19.00;33.10
64549;DHT22;49838;51.798;10.954;2023-03-19T07:03:14;19.10;33.00
64549;DHT22;49838;51.798;10.954;2023-03-19T07:05:42;19.30;33.10
64549;DHT22;49838;51.798;10.954;2023-03-19T07:08:09;19.50;33.20
64549;DHT22;49838;51.798;10.954;2023-03-19T07:10:37;19.70;33.40
64549;DHT22;49838;51.798;10.954;2023-03-19T07:13:05;19.80;33.60
64549;DHT22;49838;51.798;10.954;2023-03-19T07:15:32;19.80;33.80
64549;DHT22;49838;51.798;10.954;2023-03-19T07:18:02;19.90;33.80
64549;DHT22;49838;51.798;10.954;2023-03-19T07:20:30;19.90;34.00
64549;DHT22;49838;51.798;10.954;2023-03-19T07:22:57;19.90;34.10
64549;DHT22;49838;51.798;10.954;2023-03-19T07:25:24;19.80;34.20
64549;DHT22;49838;51.798;10.954;2023-03-19T07:27:52;19.80;34.30
64549;DHT22;49838;51.798;10.954;2023-03-19T07:30:19;19.80;34.30
64549;DHT22;49838;51.798;10.954;2023-03-19T07:32:46;19.90;34.20
64549;DHT22;49838;51.798;10.954;2023-03-19T07:35:15;20.00;34.20
64549;DHT22;49838;51.798;10.954;2023-03-19T07:37:42;20.10;34.10
64549;DHT22;49838;51.798;10.954;2023-03-19T07:40:10;20.20;34.10
64549;DHT22;49838;51.798;10.954;2023-03-19T07:42:37;20.30;34.10
64549;DHT22;49838;51.798;10.954;2023-03-19T07:45:05;20.40;34.00
64549;DHT22;49838;51.798;10.954;2023-03-19T07:47:33;20.50;34.10
64549;DHT22;49838;51.798;10.954;2023-03-19T07:50:01;20.60;34.20
64549;DHT22;49838;51.798;10.954;2023-03-19T07:52:30;20.80;34.30
64549;DHT22;49838;51.798;10.954;2023-03-19T07:54:57;20.90;34.20
64549;DHT22;49838;51.798;10.954;2023-03-19T07:57:24;21.00;34.30
64549;DHT22;49838;51.798;10.954;2023-03-19T07:59:52;21.10;35.00
64549;DHT22;49838;51.798;10.954;2023-03-19T08:02:19;21.20;34.30
64549;DHT22;49838;51.798;10.954;2023-03-19T08:04:46;21.30;34.30
64549;DHT22;49838;51.798;10.954;2023-03-19T08:07:14;21.30;34.30
64549;DHT22;49838;51.798;10.954;2023-03-19T08:09:43;21.40;34.40
64549;DHT22;49838;51.798;10.954;2023-03-19T08:12:10;21.40;34.40
64549;DHT22;49838;51.798;10.954;2023-03-19T08:14:37;21.40;34.40
64549;DHT22;49838;51.798;10.954;2023-03-19T08:17:05;21.40;34.40
64549;DHT22;49838;51.798;10.954;2023-03-19T08:19:33;21.40;34.40
64549;DHT22;49838;51.798;10.954;2023-03-19T08:22:00;21.40;34.50
64549;DHT22;49838;51.798;10.954;2023-03-19T08:24:27;21.50;34.50
64549;DHT22;49838;51.798;10.954;2023-03-19T08:26:56;21.50;34.60
64549;DHT22;49838;51.798;10.954;2023-03-19T08:29:23;21.50;34.60
64549;DHT22;49838;51.798;10.954;2023-03-19T08:31:52;21.60;34.60
64549;DHT22;49838;51.798;10.954;2023-03-19T08:34:20;21.70;34.70
64549;DHT22;49838;51.798;10.954;2023-03-19T08:36:48;21.80;34.80
64549;DHT22;49838;51.798;10.954;2023-03-19T08:39:15;21.90;34.70
64549;DHT22;49838;51.798;10.954;2023-03-19T08:41:43;21.90;34.70
64549;DHT22;49838;51.798;10.954;2023-03-19T08:44:11;22.00;34.80
64549;DHT22;49838;51.798;10.954;2023-03-19T08:46:38;22.10;34.90
64549;DHT22;49838;51.798;10.954;2023-03-19T08:49:07;22.30;35.00
64549;DHT22;49838;51.798;10.954;2023-03-19T08:51:35;22.40;34.90
64549;DHT22;49838;51.798;10.954;2023-03-19T08:54:03;22.50;34.90
64549;DHT22;49838;51.798;10.954;2023-03-19T08:56:30;22.50;34.90
64549;DHT22;49838;51.798;10.954;2023-03-19T08:58:57;22.50;34.70
64549;DHT22;49838;51.798;10.954;2023-03-19T09:01:26;22.50;34.80
64549;DHT22;49838;51.798;10.954;2023-03-19T09:03:53;22.50;34.80
64549;DHT22;49838;51.798;10.954;2023-03-19T09:06:21;22.50;34.80
64549;DHT22;49838;51.798;10.954;2023-03-19T09:08:48;22.60;34.70
64549;DHT22;49838;51.798;10.954;2023-03-19T09:11:15;22.60;34.70
64549;DHT22;49838;51.798;10.954;2023-03-19T09:13:43;22.60;34.70
64549;DHT22;49838;51.798;10.954;2023-03-19T09:16:10;22.60;34.60
64549;DHT22;49838;51.798;10.954;2023-03-19T09:18:38;22.50;34.60
64549;DHT22;49838;51.798;10.954;2023-03-19T09:21:06;22.50;34.70
64549;DHT22;49838;51.798;10.954;2023-03-19T09:23:33;22.40;34.70
64549;DHT22;49838;51.798;10.954;2023-03-19T09:26:01;22.40;34.70
64549;DHT22;49838;51.798;10.954;2023-03-19T09:28:28;22.50;34.80
64549;DHT22;49838;51.798;10.954;2023-03-19T09:30:55;22.60;34.70
64549;DHT22;49838;51.798;10.954;2023-03-19T09:33:22;22.70;34.70
64549;DHT22;49838;51.798;10.954;2023-03-19T09:35:52;22.80;34.70
64549;DHT22;49838;51.798;10.954;2023-03-19T09:38:20;22.90;34.70
64549;DHT22;49838;51.798;10.954;2023-03-19T09:40:49;23.10;34.80
64549;DHT22;49838;51.798;10.954;2023-03-19T09:43:26;23.30;34.90
64549;DHT22;49838;51.798;10.954;2023-03-19T09:46:15;23.50;35.00
64549;DHT22;49838;51.798;10.954;2023-03-19T09:48:48;23.90;35.20
64549;DHT22;49838;51.798;10.954;2023-03-19T09:51:21;24.20;35.20
64549;DHT22;49838;51.798;10.954;2023-03-19T09:53:57;24.40;35.20
64549;DHT22;49838;51.798;10.954;2023-03-19T09:56:28;24.40;35.00
64549;DHT22;49838;51.798;10.954;2023-03-19T09:58:58;24.60;35.20
64549;DHT22;49838;51.798;10.954;2023-03-19T10:01:26;24.60;35.10
64549;DHT22;49838;51.798;10.954;2023-03-19T10:04:02;24.50;35.00
64549;DHT22;49838;51.798;10.954;2023-03-19T10:06:44;24.40;35.00
64549;DHT22;49838;51.798;10.954;2023-03-19T10:09:20;24.40;35.10
64549;DHT22;49838;51.798;10.954;2023-03-19T10:12:06;24.10;35.00
64549;DHT22;49838;51.798;10.954;2023-03-19T10:14:49;23.90;34.90
64549;DHT22;49838;51.798;10.954;2023-03-19T10:17:26;23.80;35.10
64549;DHT22;49838;51.798;10.954;2023-03-19T10:19:59;23.80;35.20
64549;DHT22;49838;51.798;10.954;2023-03-19T10:22:33;23.80;35.20
64549;DHT22;49838;51.798;10.954;2023-03-19T10:25:04;23.90;35.20
64549;DHT22;49838;51.798;10.954;2023-03-19T10:27:38;24.10;35.30
64549;DHT22;49838;51.798;10.954;2023-03-19T10:30:12;24.30;35.20
64549;DHT22;49838;51.798;10.954;2023-03-19T10:32:41;24.50;35.20
64549;DHT22;49838;51.798;10.954;2023-03-19T10:35:15;24.60;35.20
64549;DHT22;49838;51.798;10.954;2023-03-19T10:37:46;24.80;35.30
64549;DHT22;49838;51.798;10.954;2023-03-19T10:40:16;24.90;35.20
64549;DHT22;49838;51.798;10.954;2023-03-19T10:42:52;25.00;35.30
64549;DHT22;49838;51.798;10.954;2023-03-19T10:45:30;25.10;35.30
64549;DHT22;49838;51.798;10.954;2023-03-19T10:48:00;25.20;35.20
64549;DHT22;49838;51.798;10.954;2023-03-19T10:50:29;25.30;34.90
64549;DHT22;49838;51.798;10.954;2023-03-19T10:53:02;25.20;35.00
64549;DHT22;49838;51.798;10.954;2023-03-19T10:55:32;25.20;35.00
64549;DHT22;49838;51.798;10.954;2023-03-19T10:58:01;25.30;35.10
64549;DHT22;49838;51.798;10.954;2023-03-19T11:00:31;25.50;35.10
64549;DHT22;49838;51.798;10.954;2023-03-19T11:03:00;25.60;34.90
64549;DHT22;49838;51.798;10.954;2023-03-19T11:05:31;25.80;34.90
64549;DHT22;49838;51.798;10.954;2023-03-19T11:07:59;25.90;34.80
64549;DHT22;49838;51.798;10.954;2023-03-19T11:10:30;25.90;34.60
64549;DHT22;49838;51.798;10.954;2023-03-19T11:13:02;25.90;34.70
64549;DHT22;49838;51.798;10.954;2023-03-19T11:15:33;25.90;34.80
64549;DHT22;49838;51.798;10.954;2023-03-19T11:18:06;25.80;34.70
64549;DHT22;49838;51.798;10.954;2023-03-19T11:20:41;25.80;34.70
64549;DHT22;49838;51.798;10.954;2023-03-19T11:23:13;25.70;34.90
64549;DHT22;49838;51.798;10.954;2023-03-19T11:25:45;25.70;34.90
64549;DHT22;49838;51.798;10.954;2023-03-19T11:28:14;25.70;34.90
64549;DHT22;49838;51.798;10.954;2023-03-19T11:30:46;25.80;35.00
64549;DHT22;49838;51.798;10.954;2023-03-19T11:33:32;26.10;35.00
64549;DHT22;49838;51.798;10.954;2023-03-19T11:36:11;26.30;35.10
64549;DHT22;49838;51.798;10.954;2023-03-19T11:38:47;26.60;35.30
64549;DHT22;49838;51.798;10.954;2023-03-19T11:41:28;26.80;35.20
64549;DHT22;49838;51.798;10.954;2023-03-19T11:44:04;27.00;35.00
64549;DHT22;49838;51.798;10.954;2023-03-19T11:46:35;27.10;34.90
64549;DHT22;49838;51.798;10.954;2023-03-19T11:49:18;27.10;34.80
64549;DHT22;49838;51.798;10.954;2023-03-19T11:51:58;27.10;34.90
64549;DHT22;49838;51.798;10.954;2023-03-19T11:54:35;27.20;34.90
64549;DHT22;49838;51.798;10.954;2023-03-19T11:57:11;27.30;34.90
64549;DHT22;49838;51.798;10.954;2023-03-19T11:59:50;27.40;34.70
64549;DHT22;49838;51.798;10.954;2023-03-19T12:02:41;27.40;34.00
64549;DHT22;49838;51.798;10.954;2023-03-19T12:05:28;27.40;34.30
64549;DHT22;49838;51.798;10.954;2023-03-19T12:08:12;27.30;33.60
64549;DHT22;49838;51.798;10.954;2023-03-19T12:11:08;27.20;33.00
64549;DHT22;49838;51.798;10.954;2023-03-19T12:13:47;27.10;33.10
64549;DHT22;49838;51.798;10.954;2023-03-19T12:16:26;27.00;33.10
64549;DHT22;49838;51.798;10.954;2023-03-19T12:19:12;26.90;33.20
64549;DHT22;49838;51.798;10.954;2023-03-19T12:21:53;26.90;33.30
64549;DHT22;49838;51.798;10.954;2023-03-19T12:24:31;26.80;32.90
64549;DHT22;49838;51.798;10.954;2023-03-19T12:27:12;26.60;32.80
64549;DHT22;49838;51.798;10.954;2023-03-19T12:29:50;26.60;32.70
64549;DHT22;49838;51.798;10.954;2023-03-19T12:32:29;26.50;33.10
64549;DHT22;49838;51.798;10.954;2023-03-19T12:35:06;26.50;33.00
64549;DHT22;49838;51.798;10.954;2023-03-19T12:37:37;26.40;32.80
64549;DHT22;49838;51.798;10.954;2023-03-19T12:40:12;26.40;32.80
64549;DHT22;49838;51.798;10.954;2023-03-19T12:42:48;26.40;32.90
64549;DHT22;49838;51.798;10.954;2023-03-19T12:45:20;26.40;32.90
64549;DHT22;49838;51.798;10.954;2023-03-19T12:47:55;26.40;33.00
64549;DHT22;49838;51.798;10.954;2023-03-19T12:50:26;26.30;32.90
64549;DHT22;49838;51.798;10.954;2023-03-19T12:52:57;26.30;32.80
64549;DHT22;49838;51.798;10.954;2023-03-19T12:55:31;26.30;33.10
64549;DHT22;49838;51.798;10.954;2023-03-19T12:58:09;26.30;33.10
64549;DHT22;49838;51.798;10.954;2023-03-19T13:00:46;26.30;33.00
64549;DHT22;49838;51.798;10.954;2023-03-19T13:03:20;26.30;32.90
64549;DHT22;49838;51.798;10.954;2023-03-19T13:05:58;26.20;33.00
64549;DHT22;49838;51.798;10.954;2023-03-19T13:08:31;26.30;33.10
64549;DHT22;49838;51.798;10.954;2023-03-19T13:11:04;26.20;33.00
64549;DHT22;49838;51.798;10.954;2023-03-19T13:13:40;26.20;33.00
64549;DHT22;49838;51.798;10.954;2023-03-19T13:16:14;26.20;33.10
64549;DHT22;49838;51.798;10.954;2023-03-19T13:18:56;26.10;33.20
64549;DHT22;49838;51.798;10.954;2023-03-19T13:21:28;26.00;33.20
64549;DHT22;49838;51.798;10.954;2023-03-19T13:24:00;25.90;33.10
64549;DHT22;49838;51.798;10.954;2023-03-19T13:26:34;25.90;33.20
64549;DHT22;49838;51.798;10.954;2023-03-19T13:29:07;25.70;33.20
64549;DHT22;49838;51.798;10.954;2023-03-19T13:31:41;25.60;33.20
64549;DHT22;49838;51.798;10.954;2023-03-19T13:34:16;25.50;33.40
64549;DHT22;49838;51.798;10.954;2023-03-19T13:36:47;25.50;33.50
64549;DHT22;49838;51.798;10.954;2023-03-19T13:39:20;25.40;33.40
64549;DHT22;49838;51.798;10.954;2023-03-19T13:41:56;25.30;33.30
64549;DHT22;49838;51.798;10.954;2023-03-19T13:44:39;25.20;33.40
64549;DHT22;49838;51.798;10.954;2023-03-19T13:50:24;25.00;33.40
64549;DHT22;49838;51.798;10.954;2023-03-19T13:53:17;24.90;33.40
64549;DHT22;49838;51.798;10.954;2023-03-19T13:55:51;24.80;33.50
64549;DHT22;49838;51.798;10.954;2023-03-19T13:58:21;24.60;33.40
64549;DHT22;49838;51.798;10.954;2023-03-19T14:01:49;24.40;33.50
64549;DHT22;49838;51.798;10.954;2023-03-19T14:04:17;24.20;33.70
64549;DHT22;49838;51.798;10.954;2023-03-19T14:06:49;24.00;33.80
64549;DHT22;49838;51.798;10.954;2023-03-19T14:09:30;23.80;33.80
64549;DHT22;49838;51.798;10.954;2023-03-19T14:12:08;23.60;33.80
64549;DHT22;49838;51.798;10.954;2023-03-19T14:14:40;23.60;33.80
64549;DHT22;49838;51.798;10.954;2023-03-19T14:17:13;23.60;33.80
64549;DHT22;49838;51.798;10.954;2023-03-19T14:19:42;23.70;33.80
64549;DHT22;49838;51.798;10.954;2023-03-19T14:22:16;23.90;33.90
64549;DHT22;49838;51.798;10.954;2023-03-19T14:24:55;23.90;33.70
64549;DHT22;49838;51.798;10.954;2023-03-19T14:27:30;24.10;33.80
64549;DHT22;49838;51.798;10.954;2023-03-19T14:30:00;24.20;33.70
64549;DHT22;49838;51.798;10.954;2023-03-19T14:32:35;24.30;33.80
64549;DHT22;49838;51.798;10.954;2023-03-19T14:35:06;24.40;33.80
64549;DHT22;49838;51.798;10.954;2023-03-19T14:37:43;24.40;34.40
64549;DHT22;49838;51.798;10.954;2023-03-19T14:40:13;24.40;33.80
64549;DHT22;49838;51.798;10.954;2023-03-19T14:42:47;24.50;33.90
64549;DHT22;49838;51.798;10.954;2023-03-19T14:48:31;24.40;34.00
64549;DHT22;49838;51.798;10.954;2023-03-19T14:51:21;24.50;34.00
64549;DHT22;49838;51.798;10.954;2023-03-19T14:53:57;24.50;34.00
64549;DHT22;49838;51.798;10.954;2023-03-19T14:56:31;24.60;34.00
64549;DHT22;49838;51.798;10.954;2023-03-19T14:58:59;24.70;34.00
64549;DHT22;49838;51.798;10.954;2023-03-19T15:01:31;24.70;34.00
64549;DHT22;49838;51.798;10.954;2023-03-19T15:04:03;24.80;34.00
64549;DHT22;49838;51.798;10.954;2023-03-19T15:06:35;24.90;34.00
64549;DHT22;49838;51.798;10.954;2023-03-19T15:09:08;25.00;33.90
64549;DHT22;49838;51.798;10.954;2023-03-19T15:11:49;24.90;34.00
64549;DHT22;49838;51.798;10.954;2023-03-19T15:14:31;24.90;34.00
64549;DHT22;49838;51.798;10.954;2023-03-19T15:17:08;24.70;34.00
64549;DHT22;49838;51.798;10.954;2023-03-19T15:19:44;24.50;34.10
64549;DHT22;49838;51.798;10.954;2023-03-19T15:22:13;24.40;34.10
64549;DHT22;49838;51.798;10.954;2023-03-19T15:24:41;24.30;34.30
64549;DHT22;49838;51.798;10.954;2023-03-19T15:27:19;24.20;34.20
64549;DHT22;49838;51.798;10.954;2023-03-19T15:29:48;24.20;34.30
64549;DHT22;49838;51.798;10.954;2023-03-19T15:32:29;24.10;34.20
64549;DHT22;49838;51.798;10.954;2023-03-19T15:35:00;24.10;34.10
64549;DHT22;49838;51.798;10.954;2023-03-19T15:37:28;24.10;34.20
64549;DHT22;49838;51.798;10.954;2023-03-19T15:39:59;24.00;34.10
64549;DHT22;49838;51.798;10.954;2023-03-19T15:42:28;23.90;34.10
64549;DHT22;49838;51.798;10.954;2023-03-19T15:45:00;23.70;34.10